createdAt,value
2024-03-05T00:00:50.575Z,15.50
2024-03-05T00:01:52.524Z,14.33
2024-03-05T00:02:53.991Z,16.03
2024-03-05T00:03:55.344Z,15.40
2024-03-05T00:04:57.403Z,13.90
2024-03-05T00:05:59.613Z,13.43
2024-03-05T00:07:01.002Z,16.23
2024-03-05T00:08:03.912Z,16.67
2024-03-05T00:09:06.359Z,16.53
2024-03-05T00:10:11.327Z,25.50
2024-03-05T00:11:12.913Z,20.20
2024-03-05T00:12:14.407Z,14.67
2024-03-05T00:13:15.885Z,15.70
2024-03-05T00:14:17.268Z,13.93
2024-03-05T00:15:18.777Z,19.37
2024-03-05T00:16:20.237Z,15.73
2024-03-05T00:17:21.678Z,12.83
2024-03-05T00:18:23.343Z,19.33
2024-03-05T00:19:27.545Z,17.53
2024-03-05T00:20:29.242Z,17.63
2024-03-05T00:21:31.830Z,16.33
2024-03-05T00:22:34.796Z,17.13
2024-03-05T00:23:38.635Z,17.33
2024-03-05T00:24:40.070Z,14.40
2024-03-05T00:25:42.733Z,12.57
2024-03-05T00:26:44.376Z,19.70
2024-03-05T00:27:46.808Z,11.90
2024-03-05T00:28:48.623Z,17.20
2024-03-05T00:29:50.475Z,11.90
2024-03-05T00:30:52.583Z,19.33
2024-03-05T00:31:54.515Z,13.67
2024-03-05T00:32:56.522Z,14.80
2024-03-05T00:33:58.512Z,14.27
2024-03-05T00:35:00.843Z,21.60
2024-03-05T00:36:04.697Z,17.03
2024-03-05T00:37:06.728Z,14.37
2024-03-05T00:38:09.721Z,13.90
2024-03-05T00:39:17.630Z,13.60
2024-03-05T00:40:20.194Z,13.90
2024-03-05T00:41:23.781Z,17.57
2024-03-05T00:42:25.546Z,19.43
2024-03-05T00:43:27.345Z,13.93
2024-03-05T00:44:29.261Z,12.37
2024-03-05T00:45:31.819Z,23.10
2024-03-05T00:46:33.389Z,24.30
2024-03-05T00:47:36.246Z,15.97
2024-03-05T00:48:37.920Z,16.10
2024-03-05T00:49:39.257Z,16.20
2024-03-05T00:50:42.486Z,20.20
2024-03-05T00:51:43.960Z,30.87
2024-03-05T00:52:47.667Z,18.40
2024-03-05T00:53:49.449Z,16.17
2024-03-05T00:54:51.264Z,22.63
2024-03-05T00:55:53.015Z,15.80
2024-03-05T00:56:54.939Z,16.83
2024-03-05T00:57:56.448Z,14.13
2024-03-05T00:58:58.749Z,16.93
2024-03-05T01:00:00.578Z,15.10
2024-03-05T01:01:04.763Z,16.57
2024-03-05T01:02:07.672Z,22.43
2024-03-05T01:03:10.442Z,15.97
2024-03-05T01:04:11.985Z,16.33
2024-03-05T01:05:13.699Z,15.80
2024-03-05T01:06:15.831Z,19.00
2024-03-05T01:07:18.260Z,20.43
2024-03-05T01:08:20.108Z,14.37
2024-03-05T01:09:26.000Z,19.67
2024-03-05T01:10:27.567Z,19.87
2024-03-05T01:11:34.177Z,16.70
2024-03-05T01:12:36.587Z,16.50
2024-03-05T01:13:39.192Z,13.87
2024-03-05T01:14:42.095Z,18.50
2024-03-05T01:15:44.071Z,17.53
2024-03-05T01:16:45.869Z,17.03
2024-03-05T01:17:47.380Z,16.50
2024-03-05T01:18:49.146Z,14.30
2024-03-05T01:19:50.659Z,17.50
2024-03-05T01:20:52.162Z,15.20
2024-03-05T01:21:54.127Z,13.63
2024-03-05T01:22:55.572Z,13.10
2024-03-05T01:23:58.406Z,18.83
2024-03-05T01:24:59.828Z,16.73
2024-03-05T01:26:01.809Z,19.10
2024-03-05T01:27:04.238Z,14.60
2024-03-05T01:28:07.354Z,13.83
2024-03-05T01:29:08.965Z,13.60
2024-03-05T01:30:12.581Z,14.27
2024-03-05T01:31:14.226Z,13.13
2024-03-05T01:32:16.000Z,15.77
2024-03-05T01:33:21.632Z,16.80
2024-03-05T01:34:24.256Z,13.10
2024-03-05T01:35:26.929Z,17.23
2024-03-05T01:36:30.932Z,14.80
2024-03-05T01:37:32.440Z,21.47
2024-03-05T01:38:34.808Z,15.80
2024-03-05T01:39:36.139Z,14.80
2024-03-05T01:40:37.923Z,17.47
2024-03-05T01:41:40.811Z,13.77
2024-03-05T01:42:44.425Z,24.47
2024-03-05T01:43:46.485Z,19.57
2024-03-05T01:44:48.824Z,24.27
2024-03-05T01:45:53.125Z,22.00
2024-03-05T01:46:58.164Z,28.07
2024-03-05T01:48:00.778Z,18.93
2024-03-05T01:49:02.363Z,17.20
2024-03-05T01:50:05.256Z,19.53
2024-03-05T01:51:07.541Z,19.63
2024-03-05T01:52:09.514Z,28.63
2024-03-05T01:53:15.950Z,20.63
2024-03-05T01:54:19.393Z,25.20
2024-03-05T01:55:21.038Z,16.00
2024-03-05T01:56:23.389Z,23.90
2024-03-05T01:57:25.717Z,17.00
2024-03-05T01:58:27.772Z,19.20
2024-03-05T01:59:29.889Z,16.27
2024-03-05T02:00:32.705Z,22.57
2024-03-05T02:01:36.167Z,24.50
2024-03-05T02:02:38.225Z,17.30
2024-03-05T02:03:40.285Z,17.13
2024-03-05T02:04:44.218Z,20.03
2024-03-05T02:05:48.641Z,18.30
2024-03-05T02:06:53.188Z,20.43
2024-03-05T02:07:55.559Z,20.80
2024-03-05T02:08:57.453Z,21.17
2024-03-05T02:10:00.063Z,16.53
2024-03-05T02:11:02.241Z,15.97
2024-03-05T02:12:04.708Z,18.40
2024-03-05T02:13:09.307Z,20.40
2024-03-05T02:14:11.476Z,29.60
2024-03-05T02:15:14.108Z,16.00
2024-03-05T02:16:15.652Z,23.10
2024-03-05T02:17:17.944Z,15.33
2024-03-05T02:18:19.409Z,17.20
2024-03-05T02:19:20.784Z,16.67
2024-03-05T02:20:22.660Z,14.13
2024-03-05T02:21:24.166Z,18.50
2024-03-05T02:22:25.597Z,17.63
2024-03-05T02:23:27.121Z,16.40
2024-03-05T02:24:29.548Z,15.33
2024-03-05T02:25:34.479Z,19.17
2024-03-05T02:26:37.181Z,15.27
2024-03-05T02:27:40.184Z,17.00
2024-03-05T02:28:42.419Z,16.23
2024-03-05T02:29:44.000Z,15.70
2024-03-05T02:30:46.170Z,17.40
2024-03-05T02:31:48.493Z,15.83
2024-03-05T02:32:50.325Z,16.70
2024-03-05T02:33:53.105Z,19.67
2024-03-05T02:34:55.646Z,21.10
2024-03-05T02:36:00.299Z,18.60
2024-03-05T02:37:02.007Z,18.03
2024-03-05T02:38:07.402Z,14.37
2024-03-05T02:39:10.610Z,12.73
2024-03-05T02:40:14.715Z,15.00
2024-03-05T02:41:16.449Z,18.27
2024-03-05T02:42:18.060Z,18.67
2024-03-05T02:43:21.990Z,18.57
2024-03-05T02:44:24.932Z,18.50
2024-03-05T02:45:27.295Z,16.37
2024-03-05T02:46:29.065Z,18.93
2024-03-05T02:47:30.486Z,15.40
2024-03-05T02:48:32.000Z,15.20
2024-03-05T02:49:35.233Z,18.20
2024-03-05T02:50:37.206Z,18.77
2024-03-05T02:51:38.789Z,16.87
2024-03-05T02:52:42.785Z,21.20
2024-03-05T02:53:44.451Z,15.67
2024-03-05T02:54:46.882Z,18.83
2024-03-05T02:55:48.364Z,16.13
2024-03-05T02:56:50.878Z,24.33
2024-03-05T02:57:52.732Z,17.63
2024-03-05T02:58:54.535Z,15.10
2024-03-05T02:59:56.115Z,12.50
2024-03-05T03:00:58.061Z,16.63
2024-03-05T03:01:59.520Z,14.17
2024-03-05T03:03:02.674Z,17.67
2024-03-05T03:04:06.653Z,17.07
2024-03-05T03:05:11.004Z,15.27
2024-03-05T03:06:17.855Z,18.40
2024-03-05T03:07:20.001Z,13.00
2024-03-05T03:08:21.699Z,17.50
2024-03-05T03:09:23.171Z,18.83
2024-03-05T03:10:26.000Z,17.80
2024-03-05T03:11:27.687Z,15.37
2024-03-05T03:12:29.048Z,12.60
2024-03-05T03:13:31.182Z,15.60
2024-03-05T03:14:33.007Z,12.80
2024-03-05T03:15:34.349Z,15.33
2024-03-05T03:16:35.787Z,14.00
2024-03-05T03:17:44.382Z,17.90
2024-03-05T03:18:48.098Z,14.20
2024-03-05T03:19:50.504Z,17.13
2024-03-05T03:20:52.387Z,19.47
2024-03-05T03:21:54.652Z,12.43
2024-03-05T03:22:56.501Z,11.80
2024-03-05T03:23:58.268Z,10.30
2024-03-05T03:24:59.677Z,9.13
2024-03-05T03:26:02.036Z,15.50
2024-03-05T03:27:03.952Z,13.47
2024-03-05T03:28:05.891Z,11.53
2024-03-05T03:29:12.780Z,13.30
2024-03-05T03:30:21.594Z,9.63
2024-03-05T03:31:24.119Z,11.53
2024-03-05T03:32:25.781Z,14.13
2024-03-05T03:33:27.861Z,17.77
2024-03-05T03:34:29.998Z,13.63
2024-03-05T03:35:31.732Z,11.27
2024-03-05T03:36:34.390Z,10.43
2024-03-05T03:37:36.059Z,10.10
2024-03-05T03:38:37.990Z,7.77
2024-03-05T03:39:43.627Z,10.70
2024-03-05T03:40:45.290Z,9.90
2024-03-05T03:41:49.876Z,8.70
2024-03-05T03:42:53.032Z,9.40
2024-03-05T03:43:54.756Z,10.00
2024-03-05T03:44:56.595Z,10.63
2024-03-05T03:45:58.744Z,10.40
2024-03-05T03:47:00.216Z,17.50
2024-03-05T03:48:04.989Z,7.73
2024-03-05T03:49:06.944Z,6.73
2024-03-05T03:50:09.200Z,8.20
2024-03-05T03:51:12.072Z,7.03
2024-03-05T03:52:13.546Z,8.37
2024-03-05T03:53:15.065Z,8.67
2024-03-05T03:54:16.691Z,11.90
2024-03-05T03:55:18.544Z,7.40
2024-03-05T03:56:20.226Z,8.90
2024-03-05T03:57:21.921Z,11.83
2024-03-05T03:58:25.150Z,10.10
2024-03-05T03:59:26.841Z,8.07
2024-03-05T04:00:30.465Z,9.10
2024-03-05T04:01:33.428Z,7.67
2024-03-05T04:02:38.367Z,8.57
2024-03-05T04:03:40.962Z,8.70
2024-03-05T04:04:43.447Z,7.57
2024-03-05T04:05:46.304Z,9.10
2024-03-05T04:06:48.008Z,12.73
2024-03-05T04:07:49.398Z,13.93
2024-03-05T04:08:51.474Z,10.20
2024-03-05T04:09:52.963Z,8.73
2024-03-05T04:10:55.342Z,5.73
2024-03-05T04:11:56.923Z,7.23
2024-03-05T04:12:58.840Z,8.33
2024-03-05T04:14:04.083Z,10.17
2024-03-05T04:15:08.937Z,7.47
2024-03-05T04:16:10.708Z,11.77
2024-03-05T04:17:15.383Z,6.63
2024-03-05T04:18:17.195Z,8.00
2024-03-05T04:19:18.802Z,6.20
2024-03-05T04:20:21.680Z,7.83
2024-03-05T04:21:24.687Z,7.00
2024-03-05T04:22:26.630Z,10.23
2024-03-05T04:23:31.371Z,7.23
2024-03-05T04:24:32.857Z,7.03
2024-03-05T04:25:41.148Z,13.70
2024-03-05T04:26:43.603Z,9.50
2024-03-05T04:27:48.075Z,9.83
2024-03-05T04:28:54.116Z,10.63
2024-03-05T04:29:58.271Z,7.63
2024-03-05T04:30:59.990Z,10.80
2024-03-05T04:32:09.907Z,9.97
2024-03-05T04:33:12.330Z,9.60
2024-03-05T04:34:20.694Z,6.40
2024-03-05T04:35:22.927Z,8.07
2024-03-05T04:36:25.000Z,10.60
2024-03-05T04:37:26.688Z,7.03
2024-03-05T04:38:28.560Z,6.80
2024-03-05T04:39:30.264Z,9.20
2024-03-05T04:40:31.986Z,7.10
2024-03-05T04:41:34.764Z,5.90
2024-03-05T04:42:37.110Z,7.70
2024-03-05T04:43:42.480Z,7.80
2024-03-05T04:44:45.225Z,9.07
2024-03-05T04:45:47.136Z,10.00
2024-03-05T04:46:49.212Z,8.00
2024-03-05T04:47:51.370Z,9.80
2024-03-05T04:48:52.928Z,12.60
2024-03-05T04:49:54.527Z,10.47
2024-03-05T04:50:57.181Z,8.57
2024-03-05T04:51:58.542Z,10.57
2024-03-05T04:53:01.599Z,13.53
2024-03-05T04:54:03.248Z,6.30
2024-03-05T04:55:05.463Z,9.03
2024-03-05T04:56:09.635Z,7.47
2024-03-05T04:57:11.443Z,11.50
2024-03-05T04:58:13.462Z,5.70
2024-03-05T04:59:17.796Z,9.83
2024-03-05T05:00:23.091Z,8.20
2024-03-05T05:01:25.020Z,9.27
2024-03-05T05:02:26.900Z,6.50
2024-03-05T05:03:28.461Z,11.53
2024-03-05T05:04:30.762Z,6.50
2024-03-05T05:05:33.134Z,7.90
2024-03-05T05:06:34.938Z,8.77
2024-03-05T05:07:36.672Z,9.87
2024-03-05T05:08:38.307Z,8.80
2024-03-05T05:09:41.945Z,9.10
2024-03-05T05:10:43.850Z,6.70
2024-03-05T05:11:45.587Z,9.23
2024-03-05T05:12:47.725Z,6.10
2024-03-05T05:13:49.458Z,6.77
2024-03-05T05:14:51.248Z,7.30
2024-03-05T05:15:52.941Z,13.20
2024-03-05T05:16:56.600Z,7.27
2024-03-05T05:18:01.738Z,5.37
2024-03-05T05:19:06.320Z,5.30
2024-03-05T05:20:12.151Z,8.30
2024-03-05T05:21:13.910Z,7.50
2024-03-05T05:22:15.452Z,9.20
2024-03-05T05:23:16.934Z,5.40
2024-03-05T05:24:20.364Z,6.93
2024-03-05T05:25:23.606Z,9.47
2024-03-05T05:26:25.276Z,7.63
2024-03-05T05:27:27.227Z,6.47
2024-03-05T05:28:32.839Z,5.23
2024-03-05T05:29:40.574Z,6.27
2024-03-05T05:30:45.011Z,6.47
2024-03-05T05:31:46.935Z,7.53
2024-03-05T05:32:49.433Z,5.80
2024-03-05T05:33:51.295Z,4.90
2024-03-05T05:34:52.973Z,6.70
2024-03-05T05:35:55.070Z,5.20
2024-03-05T05:36:56.565Z,6.43
2024-03-05T05:37:58.588Z,5.03
2024-03-05T05:39:00.516Z,6.40
2024-03-05T05:40:04.720Z,5.27
2024-03-05T05:41:07.289Z,4.80
2024-03-05T05:42:15.501Z,4.97
2024-03-05T05:43:19.799Z,4.00
2024-03-05T05:44:24.762Z,5.07
2024-03-05T05:45:26.536Z,5.33
2024-03-05T05:46:29.241Z,4.57
2024-03-05T05:47:33.144Z,6.80
2024-03-05T05:48:36.048Z,4.47
2024-03-05T05:49:38.329Z,6.30
2024-03-05T05:50:39.743Z,4.60
2024-03-05T05:51:41.509Z,4.97
2024-03-05T05:52:47.438Z,3.87
2024-03-05T05:53:51.035Z,4.00
2024-03-05T05:54:52.780Z,3.83
2024-03-05T05:55:54.292Z,3.90
2024-03-05T05:56:56.633Z,3.60
2024-03-05T05:57:59.737Z,3.40
2024-03-05T05:59:01.081Z,5.07
2024-03-05T06:00:08.653Z,3.90
2024-03-05T06:01:11.845Z,3.77
2024-03-05T06:02:14.468Z,3.40
2024-03-05T06:03:16.186Z,4.23
2024-03-05T06:04:18.468Z,3.90
2024-03-05T06:05:26.153Z,3.47
2024-03-05T06:06:27.435Z,3.63
2024-03-05T06:07:28.776Z,3.83
2024-03-05T06:08:31.178Z,4.07
2024-03-05T06:09:35.273Z,3.87
2024-03-05T06:10:36.648Z,4.70
2024-03-05T06:11:39.105Z,3.73
2024-03-05T06:12:41.327Z,3.43
2024-03-05T06:13:44.581Z,3.87
2024-03-05T06:14:45.925Z,4.03
2024-03-05T06:15:48.419Z,3.70
2024-03-05T06:16:49.928Z,3.40
2024-03-05T06:17:52.836Z,6.60
2024-03-05T06:18:55.600Z,3.67
2024-03-05T06:20:00.036Z,4.20
2024-03-05T06:21:03.566Z,3.70
2024-03-05T06:22:04.985Z,5.93
2024-03-05T06:23:06.537Z,3.40
2024-03-05T06:24:08.550Z,3.60
2024-03-05T06:25:12.939Z,3.40
2024-03-05T06:26:14.279Z,4.67
2024-03-05T06:27:17.843Z,3.67
2024-03-05T06:28:20.726Z,3.80
2024-03-05T06:29:22.971Z,3.60
2024-03-05T06:30:24.848Z,4.30
2024-03-05T06:31:28.342Z,3.80
2024-03-05T06:32:32.613Z,3.67
2024-03-05T06:33:34.077Z,3.37
2024-03-05T06:34:36.321Z,3.47
2024-03-05T06:35:38.195Z,3.23
2024-03-05T06:36:39.803Z,2.93
2024-03-05T06:37:47.732Z,3.30
2024-03-05T06:38:49.546Z,3.23
2024-03-05T06:39:51.522Z,4.33
2024-03-05T06:40:55.845Z,6.10
2024-03-05T06:42:00.538Z,4.53
2024-03-05T06:43:05.784Z,2.97
2024-03-05T06:44:15.959Z,3.10
2024-03-05T06:45:26.265Z,3.97
2024-03-05T06:46:31.115Z,2.73
2024-03-05T06:47:39.869Z,2.93
2024-03-05T06:48:48.998Z,3.00
2024-03-05T06:49:55.507Z,3.80
2024-03-05T06:51:01.485Z,2.63
2024-03-05T06:52:21.981Z,8.00
2024-03-05T06:53:42.053Z,2.90
2024-03-05T06:55:09.800Z,2.63
2024-03-05T06:56:30.135Z,3.33
2024-03-05T06:57:33.865Z,2.60
2024-03-05T06:58:36.700Z,3.37
2024-03-05T06:59:38.213Z,3.50
2024-03-05T07:00:42.001Z,3.07
2024-03-05T07:01:45.791Z,2.80
2024-03-05T07:02:47.644Z,3.17
2024-03-05T07:03:49.765Z,2.50
2024-03-05T07:04:51.251Z,3.00
2024-03-05T07:05:52.652Z,2.60
2024-03-05T07:06:56.120Z,2.40
2024-03-05T07:07:57.673Z,2.47
2024-03-05T07:09:01.387Z,2.73
2024-03-05T07:10:14.924Z,2.80
2024-03-05T07:11:17.605Z,2.30
2024-03-05T07:12:19.450Z,2.67
2024-03-05T07:13:22.217Z,2.53
2024-03-05T07:14:24.322Z,3.23
2024-03-05T07:15:26.676Z,2.90
2024-03-05T07:16:28.351Z,2.67
2024-03-05T07:17:29.755Z,3.90
2024-03-05T07:18:31.749Z,2.30
2024-03-05T07:19:34.973Z,2.67
2024-03-05T07:20:38.451Z,2.40
2024-03-05T07:21:40.404Z,2.27
2024-03-05T07:22:42.069Z,2.60
2024-03-05T07:23:45.497Z,2.50
2024-03-05T07:24:47.811Z,6.57
2024-03-05T07:25:49.303Z,2.77
2024-03-05T07:26:56.981Z,2.90
2024-03-05T07:28:06.429Z,2.47
2024-03-05T07:29:08.190Z,2.60
2024-03-05T07:30:13.137Z,2.60
2024-03-05T07:31:16.632Z,2.60
2024-03-05T07:32:18.346Z,2.33
2024-03-05T07:33:20.214Z,4.60
2024-03-05T07:34:21.606Z,2.80
2024-03-05T07:35:24.135Z,2.30
2024-03-05T07:36:25.961Z,2.53
2024-03-05T07:37:28.028Z,2.17
2024-03-05T07:38:30.718Z,2.13
2024-03-05T07:39:34.755Z,2.20
2024-03-05T07:40:42.280Z,2.67
2024-03-05T07:41:45.443Z,2.40
2024-03-05T07:42:48.759Z,2.90
2024-03-05T07:43:51.284Z,2.70
2024-03-05T07:44:52.999Z,2.17
2024-03-05T07:45:55.712Z,2.77
2024-03-05T07:46:58.116Z,2.43
2024-03-05T07:48:00.119Z,3.17
2024-03-05T07:49:01.594Z,2.33
2024-03-05T07:50:03.144Z,2.53
2024-03-05T07:51:05.249Z,2.27
2024-03-05T07:52:07.500Z,2.00
2024-03-05T07:53:09.524Z,2.23
2024-03-05T07:54:10.797Z,1.93
2024-03-05T07:55:18.707Z,6.80
2024-03-05T07:56:21.307Z,2.40
2024-03-05T07:57:23.116Z,2.03
2024-03-05T07:58:25.254Z,2.00
2024-03-05T07:59:26.653Z,2.27
2024-03-05T08:00:27.944Z,2.27
2024-03-05T08:01:29.425Z,2.57
2024-03-05T08:02:30.923Z,2.50
2024-03-05T08:03:32.261Z,2.30
2024-03-05T08:04:33.590Z,2.00
2024-03-05T08:05:36.007Z,1.90
2024-03-05T08:06:38.268Z,1.97
2024-03-05T08:07:40.693Z,1.83
2024-03-05T08:08:42.058Z,2.10
2024-03-05T08:09:43.417Z,2.23
2024-03-05T08:10:51.112Z,1.97
2024-03-05T08:11:54.537Z,2.17
2024-03-05T08:12:57.116Z,2.20
2024-03-05T08:13:58.554Z,6.33
2024-03-05T08:14:59.998Z,3.33
2024-03-05T08:16:05.652Z,1.83
2024-03-05T08:17:10.035Z,1.77
2024-03-05T08:18:13.881Z,2.00
2024-03-05T08:19:15.831Z,2.20
2024-03-05T08:20:18.216Z,2.70
2024-03-05T08:21:19.584Z,3.00
2024-03-05T08:22:21.475Z,2.27
2024-03-05T08:23:23.796Z,2.43
2024-03-05T08:24:25.341Z,1.93
2024-03-05T08:25:28.629Z,1.93
2024-03-05T08:26:30.079Z,2.00
2024-03-05T08:27:31.430Z,2.10
2024-03-05T08:28:32.824Z,2.43
2024-03-05T08:29:34.880Z,2.03
2024-03-05T08:30:36.294Z,2.00
2024-03-05T08:31:37.713Z,2.43
2024-03-05T08:32:39.838Z,2.03
2024-03-05T08:33:41.221Z,4.33
2024-03-05T08:34:43.534Z,2.30
2024-03-05T08:35:44.864Z,2.23
2024-03-05T08:36:46.800Z,1.90
2024-03-05T08:37:50.238Z,2.10
2024-03-05T08:38:52.123Z,2.10
2024-03-05T08:39:53.408Z,1.83
2024-03-05T08:40:54.992Z,1.97
2024-03-05T08:41:56.340Z,2.13
2024-03-05T08:42:59.246Z,4.77
2024-03-05T08:44:00.672Z,2.20
2024-03-05T08:45:02.020Z,1.80
2024-03-05T08:46:05.379Z,1.70
2024-03-05T08:47:08.328Z,2.17
2024-03-05T08:48:09.735Z,2.03
2024-03-05T08:49:11.253Z,1.70
2024-03-05T08:50:13.521Z,2.00
2024-03-05T08:51:14.855Z,5.20
2024-03-05T08:52:17.030Z,2.10
2024-03-05T08:53:18.360Z,2.13
2024-03-05T08:54:19.738Z,2.40
2024-03-05T08:55:21.041Z,1.90
2024-03-05T08:56:22.334Z,1.57
2024-03-05T08:57:27.289Z,4.00
2024-03-05T08:58:29.850Z,1.90
2024-03-05T08:59:32.921Z,1.87
2024-03-05T09:00:42.482Z,2.23
2024-03-05T09:01:45.169Z,1.50
2024-03-05T09:02:47.551Z,1.87
2024-03-05T09:03:49.076Z,1.87
2024-03-05T09:04:52.850Z,1.50
2024-03-05T09:05:54.256Z,1.60
2024-03-05T09:06:55.793Z,1.83
2024-03-05T09:07:57.374Z,3.30
2024-03-05T09:08:59.700Z,4.60
2024-03-05T09:10:01.032Z,2.10
2024-03-05T09:11:06.788Z,1.63
2024-03-05T09:12:08.487Z,2.97
2024-03-05T09:13:10.049Z,2.20
2024-03-05T09:14:12.209Z,2.10
2024-03-05T09:15:17.362Z,1.80
2024-03-05T09:16:18.941Z,1.93
2024-03-05T09:17:20.546Z,1.70
2024-03-05T09:18:23.118Z,1.80
2024-03-05T09:19:24.982Z,2.67
2024-03-05T09:20:26.953Z,2.00
2024-03-05T09:21:29.554Z,1.70
2024-03-05T09:22:31.027Z,5.03
2024-03-05T09:23:32.412Z,1.97
2024-03-05T09:24:34.157Z,2.10
2024-03-05T09:25:37.251Z,1.60
2024-03-05T09:26:38.747Z,1.90
2024-03-05T09:27:42.160Z,1.40
2024-03-05T09:28:44.438Z,1.63
2024-03-05T09:29:47.049Z,2.17
2024-03-05T09:30:48.747Z,1.63
2024-03-05T09:31:50.544Z,1.60
2024-03-05T09:32:51.914Z,1.57
2024-03-05T09:33:54.428Z,1.90
2024-03-05T09:34:56.190Z,2.13
2024-03-05T09:35:59.635Z,1.27
2024-03-05T09:37:01.084Z,1.80
2024-03-05T09:38:04.025Z,2.07
2024-03-05T09:39:11.100Z,1.77
2024-03-05T09:40:18.737Z,1.70
2024-03-05T09:41:21.373Z,2.00
2024-03-05T09:42:23.183Z,1.83
2024-03-05T09:43:26.736Z,1.60
2024-03-05T09:44:29.473Z,1.80
2024-03-05T09:45:33.471Z,1.60
2024-03-05T09:46:39.197Z,1.90
2024-03-05T09:47:44.025Z,1.60
2024-03-05T09:48:45.877Z,2.00
2024-03-05T09:49:48.875Z,1.70
2024-03-05T09:50:50.547Z,2.33
2024-03-05T09:51:52.503Z,8.20
2024-03-05T09:52:55.130Z,5.40
2024-03-05T09:53:57.863Z,3.10
2024-03-05T09:55:00.872Z,2.10
2024-03-05T09:56:04.175Z,2.70
2024-03-05T09:57:06.266Z,2.27
2024-03-05T09:58:11.909Z,2.60
2024-03-05T09:59:15.988Z,1.90
2024-03-05T10:00:21.529Z,2.30
2024-03-05T10:01:22.906Z,1.97
2024-03-05T10:02:27.263Z,2.03
2024-03-05T10:03:32.708Z,1.60
2024-03-05T10:04:41.749Z,1.57
2024-03-05T10:05:43.432Z,1.87
2024-03-05T10:06:51.022Z,1.80
2024-03-05T10:07:52.448Z,2.23
2024-03-05T10:08:55.660Z,1.80
2024-03-05T10:10:12.775Z,2.27
2024-03-05T10:11:15.327Z,1.77
2024-03-05T10:12:17.007Z,2.10
2024-03-05T10:13:18.386Z,4.40
2024-03-05T10:14:25.587Z,1.43
2024-03-05T10:15:27.690Z,1.80
2024-03-05T10:16:29.376Z,2.03
2024-03-05T10:17:44.519Z,1.97
2024-03-05T10:18:50.912Z,1.70
2024-03-05T10:19:52.671Z,1.97
2024-03-05T10:20:54.258Z,2.00
2024-03-05T10:22:11.867Z,2.30
2024-03-05T10:23:16.703Z,2.00
2024-03-05T10:24:31.049Z,1.63
2024-03-05T10:25:34.481Z,1.83
2024-03-05T10:26:37.009Z,2.00
2024-03-05T10:27:38.633Z,1.80
2024-03-05T10:28:40.416Z,2.10
2024-03-05T10:29:42.079Z,1.93
2024-03-05T10:30:47.499Z,1.93
2024-03-05T10:31:51.335Z,1.67
2024-03-05T10:32:58.071Z,1.67
2024-03-05T10:33:59.947Z,1.80
2024-03-05T10:35:02.059Z,1.70
2024-03-05T10:36:03.973Z,1.90
2024-03-05T10:37:06.190Z,2.13
2024-03-05T10:38:10.961Z,1.80
2024-03-05T10:39:14.027Z,2.30
2024-03-05T10:40:16.162Z,2.13
2024-03-05T10:41:31.856Z,1.93
2024-03-05T10:42:41.503Z,1.40
2024-03-05T10:43:43.940Z,1.83
2024-03-05T10:44:47.403Z,9.17
2024-03-05T10:45:49.188Z,1.93
2024-03-05T10:46:53.685Z,1.87
2024-03-05T10:47:59.628Z,7.03
2024-03-05T10:49:08.347Z,1.80
2024-03-05T10:50:14.440Z,2.00
2024-03-05T10:51:19.414Z,1.70
2024-03-05T10:52:23.464Z,1.97
2024-03-05T10:53:26.522Z,2.10
2024-03-05T10:54:30.334Z,2.20
2024-03-05T10:55:35.250Z,3.20
2024-03-05T10:56:44.249Z,1.60
2024-03-05T10:58:19.491Z,1.70
2024-03-05T10:59:31.325Z,1.73
2024-03-05T11:00:36.653Z,1.93
2024-03-05T11:01:40.242Z,1.60
2024-03-05T11:02:42.203Z,1.80
2024-03-05T11:03:46.188Z,2.17
2024-03-05T11:04:49.785Z,1.70
2024-03-05T11:05:53.318Z,2.03
2024-03-05T11:06:57.833Z,2.10
2024-03-05T11:08:01.856Z,1.97
2024-03-05T11:09:04.261Z,2.10
2024-03-05T11:10:10.399Z,2.03
2024-03-05T11:11:20.738Z,1.90
2024-03-05T11:12:22.411Z,1.90
2024-03-05T11:13:25.731Z,2.37
2024-03-05T11:14:28.526Z,2.43
2024-03-05T11:15:30.568Z,2.47
2024-03-05T11:16:35.624Z,2.60
2024-03-05T11:17:37.421Z,1.97
2024-03-05T11:18:39.931Z,2.37
2024-03-05T11:19:44.394Z,2.40
2024-03-05T11:20:48.788Z,2.57
2024-03-05T11:21:50.898Z,2.40
2024-03-05T11:22:54.308Z,2.07
2024-03-05T11:23:56.430Z,2.43
2024-03-05T11:25:01.480Z,2.60
2024-03-05T11:26:04.935Z,2.10
2024-03-05T11:27:13.105Z,2.10
2024-03-05T11:28:17.724Z,2.27
2024-03-05T11:29:21.208Z,2.40
2024-03-05T11:30:23.330Z,1.90
2024-03-05T11:31:28.760Z,2.20
2024-03-05T11:32:34.195Z,2.10
2024-03-05T11:33:35.804Z,2.17
2024-03-05T11:34:37.235Z,1.83
2024-03-05T11:35:39.299Z,2.20
2024-03-05T11:36:41.252Z,3.53
2024-03-05T11:38:06.283Z,2.13
2024-03-05T11:39:16.080Z,2.70
2024-03-05T11:40:19.526Z,2.10
2024-03-05T11:41:25.393Z,2.00
2024-03-05T11:42:27.213Z,1.90
2024-03-05T11:43:38.377Z,1.80
2024-03-05T11:44:46.518Z,2.03
2024-03-05T11:45:50.035Z,2.60
2024-03-05T11:46:53.814Z,1.80
2024-03-05T11:47:57.662Z,2.40
2024-03-05T11:49:01.456Z,2.00
2024-03-05T11:50:07.796Z,2.10
2024-03-05T11:51:09.182Z,4.10
2024-03-05T11:52:11.099Z,2.03
2024-03-05T11:53:13.331Z,1.87
2024-03-05T11:54:18.804Z,1.93
2024-03-05T11:55:28.393Z,2.00
2024-03-05T11:56:29.713Z,1.73
2024-03-05T11:57:31.124Z,2.13
2024-03-05T11:58:34.025Z,1.93
2024-03-05T11:59:40.309Z,6.77
2024-03-05T12:00:41.750Z,2.37
2024-03-05T12:01:43.928Z,2.87
2024-03-05T12:02:45.562Z,2.07
2024-03-05T12:03:46.927Z,2.10
2024-03-05T12:04:50.336Z,1.70
2024-03-05T12:05:52.103Z,2.23
2024-03-05T12:07:03.314Z,2.40
2024-03-05T12:08:09.454Z,1.90
2024-03-05T12:09:19.726Z,2.47
2024-03-05T12:10:21.588Z,1.97
2024-03-05T12:11:23.298Z,2.87
2024-03-05T12:12:25.169Z,3.60
2024-03-05T12:13:28.655Z,1.80
2024-03-05T12:14:37.355Z,2.80
2024-03-05T12:15:39.700Z,1.60
2024-03-05T12:16:41.439Z,2.20
2024-03-05T12:17:42.959Z,2.33
2024-03-05T12:18:44.284Z,2.40
2024-03-05T12:19:47.859Z,2.40
2024-03-05T12:20:49.566Z,2.13
2024-03-05T12:21:50.909Z,2.10
2024-03-05T12:22:56.456Z,1.90
2024-03-05T12:24:00.025Z,2.20
2024-03-05T12:25:01.418Z,1.90
2024-03-05T12:26:04.811Z,2.00
2024-03-05T12:27:07.935Z,2.30
2024-03-05T12:28:10.342Z,2.30
2024-03-05T12:29:11.834Z,2.40
2024-03-05T12:30:15.043Z,2.47
2024-03-05T12:31:17.085Z,2.90
2024-03-05T12:32:19.803Z,2.83
2024-03-05T12:33:27.447Z,2.03
2024-03-05T12:34:29.146Z,1.97
2024-03-05T12:35:31.840Z,2.43
2024-03-05T12:36:33.231Z,2.17
2024-03-05T12:37:37.088Z,2.60
2024-03-05T12:38:38.801Z,2.40
2024-03-05T12:39:41.580Z,2.27
2024-03-05T12:40:43.040Z,2.00
2024-03-05T12:41:46.107Z,3.23
2024-03-05T12:42:49.329Z,5.13
2024-03-05T12:43:55.030Z,2.40
2024-03-05T12:45:10.950Z,2.10
2024-03-05T12:46:19.198Z,5.50
2024-03-05T12:47:21.054Z,5.10
2024-03-05T12:48:27.221Z,3.47
2024-03-05T12:49:30.534Z,2.60
2024-03-05T12:50:31.918Z,2.50
2024-03-05T12:51:33.361Z,3.73
2024-03-05T12:52:35.016Z,2.80
2024-03-05T12:53:36.760Z,2.13
2024-03-05T12:54:38.473Z,3.10
2024-03-05T12:55:39.981Z,2.10
2024-03-05T12:56:47.650Z,4.47
2024-03-05T12:57:49.001Z,1.93
2024-03-05T12:58:50.316Z,2.33
2024-03-05T12:59:52.418Z,1.93
2024-03-05T13:00:56.064Z,2.70
2024-03-05T13:01:59.425Z,1.90
2024-03-05T13:03:05.271Z,2.37
2024-03-05T13:04:06.639Z,2.20
2024-03-05T13:05:09.320Z,1.97
2024-03-05T13:06:12.309Z,2.30
2024-03-05T13:07:13.999Z,2.07
2024-03-05T13:08:15.473Z,3.03
2024-03-05T13:09:22.306Z,4.23
2024-03-05T13:10:24.267Z,3.03
2024-03-05T13:11:26.178Z,3.80
2024-03-05T13:12:28.915Z,2.10
2024-03-05T13:13:30.821Z,2.47
2024-03-05T13:14:32.559Z,1.90
2024-03-05T13:15:34.070Z,2.03
2024-03-05T13:16:35.719Z,1.90
2024-03-05T13:17:37.123Z,1.60
2024-03-05T13:18:38.542Z,2.53
2024-03-05T13:19:40.421Z,1.93
2024-03-05T13:20:41.952Z,1.80
2024-03-05T13:21:43.804Z,1.70
2024-03-05T13:22:51.153Z,1.90
2024-03-05T13:23:53.987Z,1.90
2024-03-05T13:24:56.545Z,1.60
2024-03-05T13:25:59.275Z,1.67
2024-03-05T13:27:01.118Z,1.83
2024-03-05T13:28:05.077Z,2.00
2024-03-05T13:29:07.200Z,1.77
2024-03-05T13:31:16.524Z,1.90
2024-03-05T13:32:17.863Z,3.43
2024-03-05T13:33:19.460Z,2.00
2024-03-05T13:34:23.669Z,3.73
2024-03-05T13:35:27.999Z,1.97
2024-03-05T13:36:29.709Z,3.70
2024-03-05T13:37:32.853Z,1.93
2024-03-05T13:38:37.183Z,1.97
2024-03-05T13:39:44.909Z,2.07
2024-03-05T13:40:46.246Z,2.53
2024-03-05T13:41:49.443Z,2.07
2024-03-05T13:42:51.255Z,1.93
2024-03-05T13:43:52.752Z,2.70
2024-03-05T13:44:55.169Z,2.83
2024-03-05T13:45:58.591Z,2.27
2024-03-05T13:47:00.139Z,2.10
2024-03-05T13:48:01.670Z,6.73
2024-03-05T13:49:09.467Z,2.03
2024-03-05T13:50:14.003Z,1.90
2024-03-05T13:51:15.438Z,3.00
2024-03-05T13:52:16.740Z,2.30
2024-03-05T13:53:18.841Z,1.90
2024-03-05T13:54:20.638Z,1.80